Blythe, Georgia
Current Conditions -  °F | °C
As of 8:53 AM on Thursday 30 Oct 2014 (Local Time) from KAGS Reporting Station
Few Clouds Few Clouds  
Wind Chill: 57°   Ceiling: Unl
Heat Index: 57°   Visibility: 10mi
Dew Point: 48°   Wind: 6mph
Humidity: 72%   Direction: 350°N
Pressure: 30.04"   Gusts: NA
Location:  33.29°N, 82.2°W
Report Text: KAGS 301253Z 35005KT 10SM FEW035 14/09 A3004 RMK AO2 SLP170 T01390089
Loading
Personal Weather Stations






























Interactive Weather Map
Tropical Storm Tracking
New forecast layout! Learn more

10-Day Weather Forecast

Advertisements
Track Severe Weather on mobile